Time;durP1;ratioP1;P1;durP2;ratioP2;P2;SDS_P1;SDS_P2;PMS_P1;PMS_P2;Temp;Humidity;BMP_temperature;BMP_pressure;BME280_temperature;BME280_humidity;BME280_pressure;Samples;Min_cycle;Max_cycle;Signal;HPM_P1;HPM_P2
2022/05/03 00:04:18;;;;;;;21.08;10.45;;;7.90;99.90;;;;;;5264165;23;20640;-62
2022/05/03 00:06:58;;;;;;;19.65;11.10;;;8.00;99.90;;;;;;4987531;28;20046;-61
2022/05/03 00:09:43;;;;;;;19.95;11.05;;;8.00;99.90;;;;;;5005341;28;20030;-63
2022/05/03 00:12:12;;;;;;;18.33;10.45;;;8.00;99.90;;;;;;5008693;28;20453;-61
2022/05/03 00:14:48;;;;;;;20.77;10.95;;;7.90;99.90;;;;;;5009313;28;20160;-62
2022/05/03 00:17:16;;;;;;;19.48;10.80;;;7.80;99.90;;;;;;5017621;28;20084;-62
2022/05/03 00:19:44;;;;;;;20.00;10.75;;;7.70;99.90;;;;;;5009048;28;20564;-63
2022/05/03 00:22:13;;;;;;;19.85;10.95;;;7.70;99.90;;;;;;5009416;28;20022;-62
2022/05/03 00:24:40;;;;;;;17.98;10.15;;;7.70;99.90;;;;;;5008326;28;20030;-61
2022/05/03 00:27:06;;;;;;;28.23;10.93;;;7.70;99.90;;;;;;5009343;28;20040;-62
2022/05/03 00:29:33;;;;;;;18.02;10.93;;;7.70;99.90;;;;;;5008485;28;20104;-61
2022/05/03 00:32:01;;;;;;;20.67;11.10;;;7.80;99.90;;;;;;5003417;28;20038;-62
2022/05/03 00:34:31;;;;;;;20.38;10.98;;;7.80;99.90;;;;;;5009934;28;20034;-63
2022/05/03 00:36:56;;;;;;;21.05;11.07;;;7.80;99.90;;;;;;5009869;28;20437;-61
2022/05/03 00:39:22;;;;;;;23.83;11.20;;;7.80;99.90;;;;;;4981358;28;20070;-61
2022/05/03 00:42:05;;;;;;;19.40;11.25;;;7.70;99.90;;;;;;5006467;28;20030;-61
2022/05/03 00:45:03;;;;;;;21.05;10.85;;;7.60;99.90;;;;;;5008719;28;20038;-62
2022/05/03 00:47:32;;;;;;;20.40;10.68;;;7.60;99.90;;;;;;5015476;28;20021;-63
2022/05/03 00:50:07;;;;;;;20.08;11.00;;;7.60;99.90;;;;;;4988790;28;20123;-62
2022/05/03 00:52:48;;;;;;;18.85;9.90;;;7.60;99.90;;;;;;5007908;28;20034;-62
2022/05/03 00:55:55;;;;;;;26.23;11.00;;;7.70;99.90;;;;;;4986702;28;20022;-61
2022/05/03 00:58:51;;;;;;;21.05;10.27;;;7.60;99.90;;;;;;5003386;28;20121;-61
2022/05/03 01:01:20;;;;;;;18.55;10.48;;;7.50;99.90;;;;;;5007183;28;20030;-61
2022/05/03 01:04:12;;;;;;;21.23;11.13;;;7.40;99.90;;;;;;5019954;28;20707;-61
2022/05/03 01:07:04;;;;;;;18.80;10.30;;;7.30;99.90;;;;;;5007215;28;20033;-61
2022/05/03 01:09:49;;;;;;;21.10;10.52;;;7.30;99.90;;;;;;4995790;28;20026;-62
2022/05/03 01:12:40;;;;;;;18.08;10.23;;;7.20;99.90;;;;;;5005457;28;20473;-61
2022/05/03 01:15:11;;;;;;;20.38;10.65;;;7.20;99.90;;;;;;5007995;28;20026;-62
2022/05/03 01:17:43;;;;;;;19.27;9.80;;;7.10;99.90;;;;;;5023722;28;20477;-61
2022/05/03 01:20:13;;;;;;;18.52;9.85;;;7.10;99.90;;;;;;5010519;28;20088;-61
2022/05/03 01:23:06;;;;;;;18.42;9.95;;;7.20;99.90;;;;;;5008299;28;20117;-61
2022/05/03 01:25:33;;;;;;;24.63;10.57;;;7.10;99.90;;;;;;4983459;28;20399;-62
2022/05/03 01:28:23;;;;;;;23.40;10.80;;;7.10;99.90;;;;;;5007771;28;20045;-61
2022/05/03 01:30:50;;;;;;;20.65;9.73;;;7.20;99.90;;;;;;4996181;28;20192;-61
2022/05/03 01:33:31;;;;;;;18.63;10.15;;;7.20;99.90;;;;;;5008248;28;20740;-61
2022/05/03 01:36:00;;;;;;;17.15;10.00;;;7.10;99.90;;;;;;5005670;28;20026;-62
2022/05/03 01:39:20;;;;;;;21.77;10.15;;;7.00;99.90;;;;;;5007108;28;21872;-61
2022/05/03 01:41:51;;;;;;;20.43;10.27;;;7.00;99.90;;;;;;4907244;29;20040;-61
2022/05/03 01:44:16;;;;;;;18.38;10.05;;;7.00;99.90;;;;;;4990637;28;20042;-61
2022/05/03 01:46:42;;;;;;;19.80;10.68;;;7.00;99.90;;;;;;5005537;28;20144;-63
2022/05/03 01:52:50;;;;;;;16.23;9.27;;;6.90;99.90;;;;;;4968400;28;20076;-61
2022/05/03 01:55:22;;;;;;;18.60;10.07;;;6.90;99.90;;;;;;5007325;28;20049;-60
2022/05/03 01:58:16;;;;;;;19.23;9.15;;;6.80;99.90;;;;;;5009088;28;20071;-60
2022/05/03 02:00:47;;;;;;;20.33;9.80;;;6.80;99.90;;;;;;5026427;28;20116;-61
2022/05/03 02:03:50;;;;;;;16.95;9.23;;;6.90;99.90;;;;;;5009873;28;20053;-61
2022/05/03 02:06:23;;;;;;;20.67;10.10;;;6.90;99.90;;;;;;5006340;28;20116;-61
2022/05/03 02:09:09;;;;;;;19.00;10.00;;;6.80;99.90;;;;;;5007011;28;20045;-62
2022/05/03 02:11:46;;;;;;;18.75;10.30;;;6.80;99.90;;;;;;5006669;28;20046;-62
2022/05/03 02:17:37;;;;;;;19.27;10.00;;;6.70;99.90;;;;;;5006909;28;20041;-61
2022/05/03 02:20:12;;;;;;;17.75;10.15;;;6.60;99.90;;;;;;5007856;28;20046;-61
2022/05/03 02:22:47;;;;;;;19.00;10.10;;;6.60;99.90;;;;;;5007668;28;20116;-61
2022/05/03 02:25:41;;;;;;;19.45;9.73;;;6.50;99.90;;;;;;5006434;28;20045;-60
2022/05/03 02:28:37;;;;;;;18.55;9.60;;;6.50;99.90;;;;;;5001248;28;20037;-60
2022/05/03 02:31:05;;;;;;;18.35;9.88;;;6.50;99.90;;;;;;5001401;28;20494;-61
2022/05/03 02:33:42;;;;;;;19.42;10.48;;;6.50;99.90;;;;;;5007700;28;20087;-62
2022/05/03 02:36:14;;;;;;;21.17;9.98;;;6.50;99.90;;;;;;5008670;28;20034;-61
2022/05/03 02:39:03;;;;;;;18.92;9.77;;;6.50;99.90;;;;;;5006747;28;20160;-60
2022/05/03 02:41:38;;;;;;;19.30;10.27;;;6.40;99.90;;;;;;5009557;28;20018;-60
2022/05/03 02:44:04;;;;;;;17.13;9.43;;;6.40;99.90;;;;;;4989712;28;20116;-60
2022/05/03 02:46:42;;;;;;;18.58;9.98;;;6.30;99.90;;;;;;5020195;28;20037;-59
2022/05/03 02:49:36;;;;;;;17.38;9.50;;;6.20;99.90;;;;;;5025149;28;20034;-59
2022/05/03 02:52:23;;;;;;;16.13;9.23;;;6.10;99.90;;;;;;4983256;28;20490;-61
2022/05/03 02:55:04;;;;;;;20.58;9.77;;;6.00;99.90;;;;;;5007515;28;20041;-60
2022/05/03 02:58:05;;;;;;;19.55;9.57;;;5.90;99.90;;;;;;5010372;28;20022;-60
2022/05/03 03:04:04;;;;;;;18.27;9.50;;;5.90;99.90;;;;;;5002953;28;20378;-60
2022/05/03 03:06:36;;;;;;;20.25;9.70;;;5.90;99.90;;;;;;5009562;28;20034;-62
2022/05/03 03:09:03;;;;;;;21.80;10.10;;;5.90;99.90;;;;;;5010123;28;20124;-61
2022/05/03 03:11:43;;;;;;;19.77;10.65;;;6.00;99.90;;;;;;5008932;28;20053;-61
2022/05/03 03:14:33;;;;;;;18.02;9.73;;;6.10;99.90;;;;;;5011158;28;20025;-60
2022/05/03 03:17:07;;;;;;;16.67;9.38;;;6.10;99.90;;;;;;5001394;28;20076;-61
2022/05/03 03:19:45;;;;;;;18.50;9.68;;;6.10;99.90;;;;;;4992472;28;20034;-60
2022/05/03 03:22:15;;;;;;;19.80;9.63;;;6.00;99.90;;;;;;5009224;28;20149;-61
2022/05/03 03:24:42;;;;;;;12.35;6.13;;;5.90;99.90;;;;;;4992091;28;20034;-61
2022/05/03 03:27:12;;;;;;;19.05;9.60;;;5.90;99.90;;;;;;5010599;28;20052;-62
2022/05/03 03:29:39;;;;;;;40.70;18.63;;;5.80;99.90;;;;;;5011203;28;20065;-62
2022/05/03 03:32:08;;;;;;;19.38;10.63;;;5.70;99.90;;;;;;5010815;28;20390;-61
2022/05/03 03:34:40;;;;;;;20.15;10.07;;;5.60;99.90;;;;;;5009312;28;20482;-61
2022/05/03 03:37:07;;;;;;;21.50;10.68;;;5.60;99.90;;;;;;4978790;28;20509;-61
2022/05/03 03:39:36;;;;;;;23.08;10.77;;;5.70;99.90;;;;;;4992373;28;20030;-61
2022/05/03 03:42:03;;;;;;;20.75;9.70;;;5.70;99.90;;;;;;5008440;28;20030;-61
2022/05/03 03:44:30;;;;;;;19.17;9.68;;;5.70;99.90;;;;;;4991515;28;20056;-61
2022/05/03 03:46:57;;;;;;;25.05;11.15;;;5.60;99.90;;;;;;5008573;28;20508;-61
2022/05/03 03:49:23;;;;;;;18.40;9.45;;;5.60;99.90;;;;;;5010055;28;20045;-63
2022/05/03 03:51:50;;;;;;;21.60;9.57;;;5.60;99.90;;;;;;5011977;28;20033;-61
2022/05/03 03:54:17;;;;;;;19.17;10.18;;;5.60;99.90;;;;;;5011499;28;20056;-60
2022/05/03 03:56:45;;;;;;;18.50;9.93;;;5.50;99.90;;;;;;5010472;28;20026;-60
2022/05/03 03:59:12;;;;;;;18.77;10.25;;;5.50;99.90;;;;;;5009893;28;20485;-62
2022/05/03 04:01:39;;;;;;;21.38;10.70;;;5.60;99.90;;;;;;5010992;28;20033;-62
2022/05/03 04:04:05;;;;;;;20.73;10.63;;;5.60;99.90;;;;;;5010899;28;20104;-60
2022/05/03 04:06:31;;;;;;;20.00;9.82;;;5.60;99.90;;;;;;4992255;28;20045;-61
2022/05/03 04:08:56;;;;;;;21.20;10.02;;;5.50;99.90;;;;;;5009659;28;20022;-62
2022/05/03 04:11:22;;;;;;;21.65;11.20;;;5.50;99.90;;;;;;5011077;28;20053;-60
2022/05/03 04:13:48;;;;;;;22.80;11.23;;;5.50;99.90;;;;;;5016188;28;20229;-60
2022/05/03 04:16:13;;;;;;;19.15;9.95;;;5.60;99.90;;;;;;5010379;28;20454;-60
2022/05/03 04:18:44;;;;;;;19.38;9.60;;;5.60;99.90;;;;;;5010263;28;20092;-62
2022/05/03 04:21:17;;;;;;;22.52;10.15;;;5.50;99.90;;;;;;5009189;28;20029;-59
2022/05/03 04:23:44;;;;;;;24.33;10.95;;;5.40;99.90;;;;;;5008496;28;20045;-60
2022/05/03 04:26:11;;;;;;;22.35;10.98;;;5.40;99.90;;;;;;5010810;28;20022;-60
2022/05/03 04:28:40;;;;;;;18.85;9.95;;;5.50;99.90;;;;;;5019467;28;20033;-60
2022/05/03 04:31:06;;;;;;;21.17;10.65;;;5.50;99.90;;;;;;5005193;28;20040;-60
2022/05/03 04:33:32;;;;;;;21.17;9.73;;;5.50;99.90;;;;;;4990597;28;20038;-60
2022/05/03 04:35:58;;;;;;;22.23;10.27;;;5.40;99.90;;;;;;4972753;28;20030;-60
2022/05/03 04:38:24;;;;;;;17.05;9.45;;;5.50;99.90;;;;;;5009183;28;20049;-60
2022/05/03 04:40:56;;;;;;;17.00;9.00;;;5.40;99.90;;;;;;5009774;28;20108;-60
2022/05/03 04:43:22;;;;;;;25.02;13.20;;;5.40;99.90;;;;;;5009651;28;20101;-60
2022/05/03 04:45:48;;;;;;;22.25;10.88;;;5.30;99.90;;;;;;4992147;28;20065;-60
2022/05/03 04:48:14;;;;;;;31.27;15.52;;;5.40;99.90;;;;;;5010568;28;20489;-60
2022/05/03 04:50:41;;;;;;;27.10;13.18;;;5.50;99.90;;;;;;5010076;28;20026;-62
2022/05/03 04:53:06;;;;;;;28.60;14.45;;;5.60;99.90;;;;;;5010117;28;20623;-61
2022/05/03 04:55:37;;;;;;;27.33;13.80;;;5.80;99.90;;;;;;5010373;28;20044;-60
2022/05/03 04:58:02;;;;;;;30.92;14.50;;;6.00;99.90;;;;;;5023545;28;20025;-61
2022/05/03 05:00:28;;;;;;;30.67;14.40;;;6.20;99.90;;;;;;5027644;28;20044;-61
2022/05/03 05:02:54;;;;;;;31.10;14.23;;;6.40;99.90;;;;;;5028559;28;20060;-60
2022/05/03 05:05:19;;;;;;;27.10;13.60;;;6.50;99.90;;;;;;5005079;28;20025;-62
2022/05/03 05:07:45;;;;;;;24.73;12.57;;;6.60;99.90;;;;;;5005405;28;20481;-60
2022/05/03 05:10:23;;;;;;;22.00;11.68;;;6.70;99.90;;;;;;5010558;28;20069;-61
2022/05/03 05:12:49;;;;;;;21.52;10.35;;;6.70;99.90;;;;;;5016107;28;20508;-60
2022/05/03 05:15:15;;;;;;;22.88;11.35;;;6.80;99.90;;;;;;4976809;28;20029;-60
2022/05/03 05:17:41;;;;;;;24.23;11.45;;;6.80;99.90;;;;;;5008553;28;20030;-62
2022/05/03 05:20:07;;;;;;;21.58;11.15;;;6.70;99.90;;;;;;5009407;28;20053;-59
2022/05/03 05:22:33;;;;;;;22.80;11.35;;;6.70;99.90;;;;;;5006536;28;20026;-62
2022/05/03 05:24:58;;;;;;;24.63;11.52;;;6.80;99.90;;;;;;5008788;28;20060;-59
2022/05/03 05:27:24;;;;;;;23.70;11.15;;;6.70;99.90;;;;;;5008205;28;20030;-61
2022/05/03 05:29:50;;;;;;;22.38;11.18;;;6.70;99.90;;;;;;5006695;28;20022;-60
2022/05/03 05:32:15;;;;;;;19.92;10.48;;;6.70;99.90;;;;;;5008625;28;20036;-67
2022/05/03 05:34:41;;;;;;;18.25;9.77;;;6.70;99.90;;;;;;5005574;28;20121;-66
2022/05/03 05:37:07;;;;;;;17.05;9.50;;;6.80;99.90;;;;;;4988003;28;20033;-66
2022/05/03 05:39:33;;;;;;;17.05;9.65;;;6.90;99.90;;;;;;4992057;28;20329;-65
2022/05/03 05:41:59;;;;;;;18.33;9.73;;;7.00;99.90;;;;;;5007034;28;20030;-65
2022/05/03 05:44:25;;;;;;;18.08;9.60;;;7.20;99.90;;;;;;5005418;28;20033;-65
2022/05/03 05:46:54;;;;;;;19.42;9.85;;;7.40;99.90;;;;;;5004071;28;20137;-65
2022/05/03 05:49:20;;;;;;;16.08;8.65;;;7.60;99.90;;;;;;5006630;28;20100;-65
2022/05/03 05:51:46;;;;;;;16.92;9.55;;;7.70;99.90;;;;;;5008860;28;20084;-66
2022/05/03 05:54:12;;;;;;;17.35;9.32;;;7.70;99.90;;;;;;5008683;28;20034;-65
2022/05/03 05:56:40;;;;;;;20.00;10.02;;;7.70;99.90;;;;;;5009320;28;20034;-64
2022/05/03 05:59:05;;;;;;;16.33;9.35;;;7.70;99.90;;;;;;5008522;28;20182;-65
2022/05/03 06:01:41;;;;;;;18.45;9.90;;;7.70;99.90;;;;;;5009190;28;20787;-66
2022/05/03 06:04:07;;;;;;;18.38;10.45;;;7.90;99.90;;;;;;5023445;28;20210;-66
2022/05/03 06:06:35;;;;;;;18.17;10.35;;;8.00;99.90;;;;;;5028822;28;20428;-66
2022/05/03 06:09:02;;;;;;;17.58;10.30;;;8.20;99.90;;;;;;5028015;28;20048;-65
2022/05/03 06:11:29;;;;;;;19.50;10.45;;;8.40;99.90;;;;;;5028702;28;20037;-65
2022/05/03 06:13:54;;;;;;;18.88;10.60;;;8.50;99.90;;;;;;5019744;28;20386;-65
2022/05/03 06:16:20;;;;;;;18.75;10.18;;;8.80;99.90;;;;;;5008757;28;20030;-66
2022/05/03 06:18:46;;;;;;;19.55;10.27;;;9.00;99.90;;;;;;5009760;28;20442;-68
2022/05/03 06:21:12;;;;;;;20.33;10.55;;;9.10;99.90;;;;;;5008951;28;20030;-65
2022/05/03 06:23:38;;;;;;;17.10;10.38;;;9.30;99.90;;;;;;5009331;28;20092;-65
2022/05/03 06:26:09;;;;;;;19.20;10.82;;;9.50;99.90;;;;;;5007894;28;20042;-65
2022/05/03 06:28:35;;;;;;;19.08;10.63;;;9.70;99.90;;;;;;5008591;28;20120;-64
2022/05/03 06:31:01;;;;;;;17.40;9.88;;;9.90;99.90;;;;;;5012162;28;20105;-64
2022/05/03 06:33:27;;;;;;;16.90;10.43;;;10.00;99.90;;;;;;5011538;28;20034;-66
2022/05/03 06:35:52;;;;;;;15.70;9.73;;;10.20;99.90;;;;;;5011078;28;20466;-65
2022/05/03 06:38:18;;;;;;;17.73;10.93;;;10.30;99.90;;;;;;5012945;28;20458;-65
2022/05/03 06:40:44;;;;;;;17.85;10.43;;;10.30;99.90;;;;;;5012883;28;20105;-65
2022/05/03 06:43:10;;;;;;;16.77;10.02;;;10.50;99.90;;;;;;5011974;28;20054;-65
2022/05/03 06:45:35;;;;;;;16.80;10.05;;;10.70;99.90;;;;;;5012561;28;20033;-65
2022/05/03 06:48:01;;;;;;;18.65;10.27;;;11.00;99.90;;;;;;5011609;28;20036;-66
2022/05/03 06:50:29;;;;;;;17.17;10.25;;;11.20;99.90;;;;;;5015627;28;20112;-65
2022/05/03 06:52:55;;;;;;;18.77;10.20;;;11.50;99.90;;;;;;5015969;28;20037;-64
2022/05/03 06:55:21;;;;;;;15.88;9.80;;;11.70;99.90;;;;;;4993777;28;20042;-64
2022/05/03 06:57:47;;;;;;;20.15;10.18;;;12.00;99.90;;;;;;5011138;28;20052;-64
2022/05/03 07:00:14;;;;;;;17.70;10.10;;;12.30;99.90;;;;;;5010961;28;20030;-65
2022/05/03 07:02:41;;;;;;;14.93;9.98;;;12.40;99.90;;;;;;4980762;28;20030;-63
2022/05/03 07:05:08;;;;;;;17.83;10.07;;;12.50;99.90;;;;;;5009188;28;20045;-63
2022/05/03 07:07:34;;;;;;;15.38;9.52;;;12.60;99.90;;;;;;5011495;28;20083;-63
2022/05/03 07:10:00;;;;;;;15.25;9.57;;;12.50;99.90;;;;;;5009353;28;20088;-64
2022/05/03 07:12:26;;;;;;;17.83;9.07;;;12.60;99.90;;;;;;5011669;28;20062;-64
2022/05/03 07:15:00;;;;;;;19.13;9.93;;;12.70;99.90;;;;;;5009700;28;20480;-66
2022/05/03 07:22:56;;;;;;;13.70;8.77;;;13.30;99.90;;;;;;5008789;28;20033;-64
2022/05/03 07:25:21;;;;;;;16.33;9.30;;;13.40;99.90;;;;;;4994217;28;20534;-64
2022/05/03 07:27:47;;;;;;;18.55;9.98;;;13.60;99.90;;;;;;5008519;28;20045;-62
2022/05/03 07:30:16;;;;;;;13.85;9.00;;;13.70;99.90;;;;;;5013046;28;20120;-62
2022/05/03 07:32:43;;;;;;;15.35;9.20;;;13.80;99.90;;;;;;5012252;28;20125;-62
2022/05/03 07:35:09;;;;;;;15.48;8.90;;;14.10;99.90;;;;;;4996170;28;20039;-63
2022/05/03 07:37:36;;;;;;;13.02;7.97;;;14.30;99.90;;;;;;4992338;28;20118;-62
2022/05/03 07:40:03;;;;;;;12.60;7.93;;;14.50;99.90;;;;;;5029220;28;20464;-63
2022/05/03 07:42:29;;;;;;;17.42;8.85;;;14.80;99.90;;;;;;5031530;28;20025;-62
2022/05/03 07:44:54;;;;;;;16.75;8.20;;;15.00;99.90;;;;;;5010980;28;21255;-62
2022/05/03 07:47:20;;;;;;;15.55;9.07;;;15.20;99.90;;;;;;5011483;28;20062;-62
2022/05/03 07:49:46;;;;;;;14.50;8.10;;;15.40;99.90;;;;;;5017040;28;20068;-62
2022/05/03 07:52:12;;;;;;;13.15;8.40;;;15.60;99.90;;;;;;5030452;28;20022;-62
2022/05/03 07:54:42;;;;;;;12.18;7.85;;;15.70;99.90;;;;;;5013093;28;20484;-63
2022/05/03 07:57:08;;;;;;;15.88;7.90;;;15.80;99.90;;;;;;5030261;28;20377;-63
2022/05/03 07:59:34;;;;;;;13.02;8.40;;;16.00;99.90;;;;;;5030568;28;20042;-62
2022/05/03 08:02:00;;;;;;;11.45;7.72;;;16.20;99.90;;;;;;5030171;28;20029;-63
2022/05/03 08:04:26;;;;;;;12.23;7.43;;;16.00;99.90;;;;;;5029492;28;20054;-63
2022/05/03 08:06:51;;;;;;;13.45;7.20;;;16.00;99.90;;;;;;5024709;28;20037;-62
2022/05/03 08:09:17;;;;;;;11.57;7.47;;;16.20;99.90;;;;;;5028452;28;20030;-63
2022/05/03 08:11:43;;;;;;;12.35;7.05;;;16.30;99.90;;;;;;5030679;28;20037;-62
2022/05/03 08:14:09;;;;;;;10.98;7.22;;;16.60;99.90;;;;;;5019718;28;20029;-63
2022/05/03 08:16:35;;;;;;;11.80;7.13;;;16.70;99.90;;;;;;5010637;28;20484;-63
2022/05/03 08:19:01;;;;;;;10.18;6.47;;;16.70;99.90;;;;;;5009470;28;20121;-63
2022/05/03 08:21:27;;;;;;;10.82;7.20;;;16.90;99.90;;;;;;5011207;28;20164;-63
2022/05/03 08:23:54;;;;;;;11.27;7.07;;;17.00;99.90;;;;;;5008606;28;20409;-64
2022/05/03 08:26:20;;;;;;;13.60;7.20;;;17.00;99.90;;;;;;5030719;28;20053;-62
2022/05/03 08:28:46;;;;;;;12.73;6.90;;;17.00;99.90;;;;;;5030313;28;20381;-63
2022/05/03 08:31:12;;;;;;;18.40;7.55;;;17.10;99.90;;;;;;5027818;28;20037;-63
2022/05/03 08:33:37;;;;;;;10.43;7.10;;;17.50;99.90;;;;;;5020332;28;20124;-63
2022/05/03 08:36:04;;;;;;;10.25;6.53;;;17.60;99.90;;;;;;5009966;28;20437;-63
2022/05/03 08:44:00;;;;;;;10.02;6.13;;;18.20;99.90;;;;;;5009341;28;20529;-62
2022/05/03 08:46:25;;;;;;;10.60;6.43;;;18.10;99.90;;;;;;5010380;28;20056;-62
2022/05/03 08:49:04;;;;;;;10.07;5.88;;;18.00;99.90;;;;;;5015573;28;20654;-62
2022/05/03 08:51:32;;;;;;;9.40;6.10;;;18.20;99.90;;;;;;4992431;28;20045;-63
2022/05/03 08:54:02;;;;;;;11.55;7.18;;;18.40;99.90;;;;;;5009262;28;20052;-63
2022/05/03 08:56:28;;;;;;;10.98;6.47;;;18.60;99.90;;;;;;5010044;28;20088;-63
2022/05/03 08:58:55;;;;;;;9.85;6.63;;;18.60;99.90;;;;;;5009764;28;20470;-63
2022/05/03 09:01:20;;;;;;;9.85;6.55;;;18.60;99.90;;;;;;5009666;28;20109;-63
2022/05/03 09:03:46;;;;;;;10.55;7.30;;;18.60;99.90;;;;;;5016708;28;20833;-63
2022/05/03 09:06:13;;;;;;;10.45;6.50;;;19.00;99.90;;;;;;5028780;28;20029;-63
2022/05/03 09:08:39;;;;;;;14.23;6.47;;;19.10;99.90;;;;;;5029583;28;20163;-63
2022/05/03 09:11:18;;;;;;;11.02;6.97;;;19.30;99.90;;;;;;5021044;28;20120;-62
2022/05/03 09:13:45;;;;;;;9.27;6.18;;;19.30;99.90;;;;;;5009823;28;20022;-62
2022/05/03 09:16:13;;;;;;;11.90;6.40;;;19.30;99.90;;;;;;5008774;28;20034;-63
2022/05/03 09:18:40;;;;;;;8.45;5.57;;;19.20;99.90;;;;;;5018237;28;20034;-62
2022/05/03 09:24:05;;;;;;;10.95;6.03;;;19.50;99.90;;;;;;5009259;28;20056;-63
2022/05/03 09:26:31;;;;;;;7.88;5.50;;;19.60;99.90;;;;;;4992334;28;20417;-62
2022/05/03 09:29:12;;;;;;;8.35;5.00;;;20.00;99.90;;;;;;5006941;28;20031;-62
2022/05/03 09:31:46;;;;;;;9.75;4.97;;;20.20;99.90;;;;;;5003541;28;20441;-63
2022/05/03 09:34:28;;;;;;;9.02;5.60;;;20.20;99.90;;;;;;5008732;28;20045;-62
2022/05/03 09:36:59;;;;;;;9.20;5.82;;;20.30;99.90;;;;;;5009544;28;20032;-62
2022/05/03 09:39:27;;;;;;;9.07;5.80;;;20.20;99.90;;;;;;5001086;28;20036;-62
2022/05/03 09:42:12;;;;;;;10.60;6.50;;;20.20;99.90;;;;;;5029356;28;20072;-62
2022/05/03 09:45:00;;;;;;;13.75;5.97;;;20.30;99.90;;;;;;5015751;28;20030;-63
2022/05/03 09:47:27;;;;;;;11.60;6.00;;;20.00;99.90;;;;;;5009677;28;20033;-62
2022/05/03 09:49:54;;;;;;;8.40;6.15;;;19.80;99.90;;;;;;5007419;28;20400;-63
2022/05/03 09:52:28;;;;;;;11.32;7.03;;;20.10;99.90;;;;;;5008969;28;20026;-62
2022/05/03 09:54:59;;;;;;;8.60;5.43;;;20.40;99.90;;;;;;5009166;28;20073;-62
2022/05/03 09:57:27;;;;;;;8.82;6.60;;;20.70;99.90;;;;;;5009265;28;20108;-62
2022/05/03 09:59:54;;;;;;;9.32;5.82;;;21.00;99.90;;;;;;5009222;28;20070;-63
2022/05/03 10:02:28;;;;;;;9.77;6.65;;;21.10;99.90;;;;;;5008960;28;20712;-63
2022/05/03 10:04:58;;;;;;;10.80;6.38;;;20.90;99.90;;;;;;5022667;28;20565;-62
2022/05/03 10:07:25;;;;;;;9.23;5.80;;;20.90;99.90;;;;;;5017767;28;20433;-62
2022/05/03 10:09:51;;;;;;;7.78;5.70;;;20.70;99.60;;;;;;5012696;28;20602;-62
2022/05/03 10:12:18;;;;;;;6.93;4.80;;;20.80;99.90;;;;;;5012263;28;20040;-63
2022/05/03 10:14:45;;;;;;;8.30;5.10;;;20.70;99.90;;;;;;5012550;28;20026;-63
2022/05/03 10:20:38;;;;;;;7.57;4.88;;;21.50;99.90;;;;;;5027791;28;20083;-64
2022/05/03 10:23:15;;;;;;;7.13;5.07;;;21.90;99.60;;;;;;5032206;28;20029;-64
2022/05/03 10:25:46;;;;;;;9.82;5.40;;;21.90;99.20;;;;;;5032745;28;20480;-63
2022/05/03 10:28:12;;;;;;;12.63;5.40;;;21.60;96.40;;;;;;5015242;28;20108;-63
2022/05/03 10:33:46;;;;;;;7.93;5.38;;;20.70;95.90;;;;;;5018306;28;20763;-63
2022/05/03 10:36:41;;;;;;;9.05;6.40;;;20.20;97.90;;;;;;5032132;28;20033;-63
2022/05/03 10:39:23;;;;;;;13.48;5.95;;;20.00;99.90;;;;;;5020883;28;20109;-64
2022/05/03 10:53:07;;;;;;;9.77;5.57;;;19.90;98.60;;;;;;5041951;23;20110;-62
2022/05/03 10:55:37;;;;;;;8.45;5.25;;;20.50;96.90;;;;;;4992713;28;20026;-62
2022/05/03 10:58:25;;;;;;;9.02;5.40;;;20.80;94.80;;;;;;4992210;28;20112;-62
2022/05/03 11:01:00;;;;;;;7.85;5.30;;;21.00;93.60;;;;;;4992388;28;20116;-62
2022/05/03 11:03:26;;;;;;;6.75;4.75;;;21.30;93.90;;;;;;4993303;28;20034;-62
2022/05/03 11:06:19;;;;;;;7.55;4.93;;;20.90;94.90;;;;;;4991650;28;20030;-62
2022/05/03 11:11:37;;;;;;;9.80;4.82;;;20.60;93.10;;;;;;4992994;28;20089;-62
2022/05/03 11:14:26;;;;;;;6.15;4.53;;;20.80;95.20;;;;;;4991950;28;20038;-62
2022/05/03 11:17:14;;;;;;;7.15;4.97;;;20.50;97.60;;;;;;4978436;28;20050;-62
2022/05/03 11:19:59;;;;;;;8.20;4.80;;;20.10;97.90;;;;;;4992475;28;20057;-62
2022/05/03 11:22:31;;;;;;;12.60;6.65;;;19.30;98.20;;;;;;4992546;28;20038;-62
2022/05/03 11:24:58;;;;;;;9.02;5.88;;;19.00;99.90;;;;;;4987835;28;20563;-61
2022/05/03 11:27:25;;;;;;;10.30;5.47;;;18.80;99.90;;;;;;4972507;28;20041;-62
2022/05/03 11:29:59;;;;;;;9.48;6.20;;;18.60;99.90;;;;;;4992771;28;20037;-62
2022/05/03 11:32:37;;;;;;;8.02;5.68;;;18.40;99.90;;;;;;4992515;28;20026;-62
2022/05/03 11:35:20;;;;;;;10.65;5.72;;;18.40;99.90;;;;;;4990462;28;20037;-61
2022/05/03 11:37:52;;;;;;;9.05;5.50;;;18.50;99.90;;;;;;4992426;28;20026;-62
2022/05/03 11:40:21;;;;;;;8.35;5.30;;;18.60;99.90;;;;;;4974005;28;20668;-62
2022/05/03 11:42:47;;;;;;;7.53;5.25;;;18.60;99.90;;;;;;4992431;28;20035;-62
2022/05/03 11:45:14;;;;;;;7.38;4.85;;;18.70;99.90;;;;;;4990239;28;20038;-62
2022/05/03 11:47:42;;;;;;;6.38;5.05;;;19.00;99.80;;;;;;4992256;28;20035;-62
2022/05/03 11:50:11;;;;;;;9.38;5.32;;;19.30;99.90;;;;;;4991411;28;20146;-62
2022/05/03 11:58:06;;;;;;;8.05;5.30;;;19.50;99.90;;;;;;4989940;28;20466;-61
2022/05/03 12:00:44;;;;;;;8.48;5.15;;;19.30;99.90;;;;;;4992070;28;20026;-62
2022/05/03 12:03:10;;;;;;;11.10;4.72;;;19.50;99.90;;;;;;4974181;28;20041;-62
2022/05/03 12:05:37;;;;;;;7.70;4.65;;;19.60;99.90;;;;;;4991258;28;20143;-62
2022/05/03 12:08:02;;;;;;;12.38;4.30;;;19.70;99.90;;;;;;4972232;28;20116;-61
2022/05/03 12:10:31;;;;;;;6.90;4.50;;;19.90;99.90;;;;;;4991033;28;20510;-62
2022/05/03 12:13:13;;;;;;;7.85;4.40;;;20.40;99.90;;;;;;4991601;28;20042;-61
2022/05/03 12:16:03;;;;;;;7.40;4.60;;;19.80;99.90;;;;;;4991864;28;20022;-62
2022/05/03 12:18:41;;;;;;;5.97;4.10;;;19.20;99.90;;;;;;4990777;28;20434;-61
2022/05/03 12:21:20;;;;;;;7.18;3.90;;;19.20;99.90;;;;;;4990979;28;20486;-62
2022/05/03 12:23:51;;;;;;;8.98;3.70;;;18.70;99.90;;;;;;4977353;28;20044;-62
2022/05/03 12:26:19;;;;;;;5.90;4.07;;;18.10;99.90;;;;;;4990241;28;20041;-62
2022/05/03 12:28:56;;;;;;;8.80;4.10;;;17.80;99.90;;;;;;4989661;28;20043;-62
2022/05/03 12:31:23;;;;;;;8.20;3.80;;;17.60;99.90;;;;;;4985493;28;20221;-62
2022/05/03 12:33:53;;;;;;;7.32;3.72;;;17.80;99.90;;;;;;4991493;28;20378;-62
2022/05/03 12:36:38;;;;;;;7.50;4.50;;;17.80;99.90;;;;;;4988786;28;20030;-62
2022/05/03 12:39:14;;;;;;;7.28;4.55;;;17.80;99.90;;;;;;4990360;28;20042;-61
2022/05/03 12:41:41;;;;;;;8.05;5.25;;;17.90;99.90;;;;;;4991239;28;20029;-62
2022/05/03 12:44:12;;;;;;;7.47;5.03;;;18.00;99.90;;;;;;4990223;28;20038;-61
2022/05/03 12:46:39;;;;;;;9.18;5.10;;;18.20;99.90;;;;;;4989870;28;20023;-62
2022/05/03 12:49:11;;;;;;;7.28;5.03;;;18.30;99.90;;;;;;4990239;28;20406;-62
2022/05/03 12:51:39;;;;;;;8.00;5.18;;;18.40;99.90;;;;;;4990793;28;20050;-62
2022/05/03 12:54:05;;;;;;;8.07;5.32;;;18.50;99.90;;;;;;4990058;28;20081;-62
2022/05/03 12:59:16;;;;;;;10.50;5.70;;;18.80;99.90;;;;;;4990269;28;20088;-62
2022/05/03 13:01:44;;;;;;;16.23;6.72;;;19.00;99.90;;;;;;4973453;28;20490;-62
2022/05/03 13:04:10;;;;;;;7.68;4.90;;;19.00;99.90;;;;;;4990057;28;20121;-62
2022/05/03 13:06:36;;;;;;;9.60;4.47;;;19.40;99.90;;;;;;4989579;28;20040;-62
2022/05/03 13:09:03;;;;;;;7.82;5.28;;;19.80;99.90;;;;;;4990172;28;20050;-62
2022/05/03 13:11:30;;;;;;;9.52;5.10;;;19.90;99.90;;;;;;4990435;28;20474;-62
2022/05/03 13:13:56;;;;;;;10.95;5.03;;;20.20;99.90;;;;;;4989445;28;20475;-62
2022/05/03 13:16:22;;;;;;;7.75;5.22;;;20.50;99.90;;;;;;4989977;28;20049;-62
2022/05/03 13:18:48;;;;;;;7.80;4.60;;;20.60;99.90;;;;;;4990724;28;20073;-62
2022/05/03 13:21:15;;;;;;;8.63;4.43;;;20.50;99.90;;;;;;4989493;28;20065;-62
2022/05/03 13:23:41;;;;;;;8.07;4.95;;;20.40;99.90;;;;;;4989662;28;20038;-62
2022/05/03 13:26:06;;;;;;;7.35;4.80;;;20.30;99.90;;;;;;4989530;28;20057;-61
2022/05/03 13:28:32;;;;;;;8.90;4.80;;;20.50;99.90;;;;;;4990407;28;20378;-62
2022/05/03 13:30:58;;;;;;;6.43;4.85;;;20.90;99.90;;;;;;4990482;28;20030;-62
2022/05/03 13:33:24;;;;;;;9.07;4.82;;;21.10;99.90;;;;;;4988607;28;20613;-62
2022/05/03 13:41:19;;;;;;;9.48;4.63;;;20.70;99.60;;;;;;4989452;28;20111;-62
2022/05/03 13:43:46;;;;;;;6.32;4.40;;;20.70;98.00;;;;;;4989227;28;20033;-62
2022/05/03 13:46:12;;;;;;;6.15;4.38;;;20.90;99.90;;;;;;4989451;28;20037;-62
2022/05/03 13:48:38;;;;;;;6.28;4.57;;;20.90;98.10;;;;;;4990207;28;20038;-62
2022/05/03 13:51:04;;;;;;;6.57;3.70;;;21.10;99.90;;;;;;4989352;28;20418;-62
2022/05/03 13:53:30;;;;;;;8.85;4.45;;;21.10;97.90;;;;;;4988557;28;20054;-62
2022/05/03 13:55:56;;;;;;;8.48;5.47;;;21.30;99.90;;;;;;4989747;28;20030;-63
2022/05/03 13:58:23;;;;;;;7.05;4.80;;;21.60;99.90;;;;;;4989194;28;20030;-63
2022/05/03 14:00:49;;;;;;;6.60;4.25;;;22.10;99.90;;;;;;4989909;28;20104;-62